Terminal Aerodrome Forecast
Issued by NWS Atlanta, GA

Home | Current Version | Previous Version | Text Only | Print | Product List | Glossary On
Versions: 1 2 3 4 5 6 7 8 9 10 11 12 13
676
FTUS42 KFFC 191720
TAFCSG
TAF
KCSG 191720Z 1918/2018 30006KT P6SM VCSH SCT045
     FM200100 23002KT P6SM FEW040
     FM200900 00000KT 5SM BR FEW030
     FM201300 28004KT P6SM SCT040=

USA.gov is the U.S. government's official web portal to all federal, state and local government web resources and services.